Pekin, Illinois
Current Conditions -  °F | °C
As of 5:54 PM on Saturday 20 Dec 2014 (Local Time) from KPIA Reporting Station
Overcast Overcast  
Wind Chill: 30°   Ceiling: 3900
Heat Index: 35°   Visibility: 8mi
Dew Point: 27°   Wind: 6mph
Humidity: 72%   Direction: 150°SSE
Pressure: 30.25"   Gusts: NA
Location:  40.57°N, 89.64°W
Report Text: KPIA 202354Z 15005KT 8SM OVC039 02/M03 A3025 RMK AO2 SLP249 T00171028 10028 20011 51008
Loading
Personal Weather Stations






























Interactive Weather Map New forecast layout! Learn more

10-Day Weather Forecast

Advertisements
Track Severe Weather on mobile